Terminal Aerodrome Forecast
Issued by NWS

Home | Current Version | Previous Version | Text Only | Print | Product List | Glossary Off
Versions: 1 2 3 4 5 6 7 8 9 10 11 12 13 14 15 16

000
FTUS43 KBIS 250100 AAA
TAFDIK
TAF AMD
KDIK 250112Z 2501/2524 31020G27KT P6SM OVC022
     FM250600 32014KT P6SM OVC020
     FM251800 24010KT P6SM SCT025=

USA.gov is the U.S. government's official web portal to all federal, state and local government web resources and services.